Terminal Aerodrome Forecast
Issued by NWS Twin Cities, MN

Home | Current Version | Previous Version | Graphics & Text | Print | Product List | Glossary On
Versions: 1 2 3 4 5 6 7 8 9 10 11 12 13 14 15 16 17 18 19 20 21 22 23 24 25 26 27 28
000
FTUS43 KMPX 210200 AAA
TAFMSP
TAF AMD
KMSP 210239Z 2103/2206 17012KT P6SM BKN045
     FM210700 18008KT P6SM SCT200
      TEMPO 2109/2113 6SM BR
     FM211400 16009G15KT P6SM FEW080 SCT150
     FM220400 16008KT P6SM VCTS FEW040CB BKN150=

USA.gov is the U.S. government's official web portal to all federal, state and local government web resources and services.